Time;durP1;ratioP1;P1;durP2;ratioP2;P2;SDS_P1;SDS_P2;PMS_P1;PMS_P2;Temp;Humidity;BMP_temperature;BMP_pressure;BME280_temperature;BME280_humidity;BME280_pressure;Samples;Min_cycle;Max_cycle;Signal;HPM_P1;HPM_P2
2023/01/31 00:01:31;;;;;;;23.47;2.70;;;;;;;10.95;51.34;102571.75;5034088;28;20040;-75
2023/01/31 00:03:59;;;;;;;18.43;3.23;;;;;;;11.02;50.36;102561.41;5039926;28;20084;-76
2023/01/31 00:06:28;;;;;;;23.47;3.60;;;;;;;11.12;50.01;102572.03;5038028;28;20128;-76
2023/01/31 00:08:55;;;;;;;21.83;2.80;;;;;;;11.34;49.56;102558.41;5031025;28;20052;-76
2023/01/31 00:11:23;;;;;;;24.23;3.70;;;;;;;10.77;50.96;102567.09;5044590;28;20048;-75
2023/01/31 00:13:49;;;;;;;16.20;3.50;;;;;;;10.89;50.67;102563.81;5050716;28;20039;-75
2023/01/31 00:16:16;;;;;;;14.53;2.80;;;;;;;10.52;51.38;102564.06;5050445;28;20043;-75
2023/01/31 00:18:42;;;;;;;15.20;3.13;;;;;;;11.07;50.72;102560.59;5050037;28;20032;-76
2023/01/31 00:21:09;;;;;;;17.27;2.43;;;;;;;11.38;50.00;102549.72;5050288;28;20095;-76
2023/01/31 00:23:35;;;;;;;16.80;2.80;;;;;;;11.08;50.06;102554.53;5049666;28;20025;-76
2023/01/31 00:26:08;;;;;;;26.57;2.93;;;;;;;10.55;52.44;102553.69;5049587;28;20029;-76
2023/01/31 00:28:34;;;;;;;13.33;2.03;;;;;;;11.17;50.33;102533.75;5050905;28;20036;-76
2023/01/31 00:30:59;;;;;;;15.20;2.00;;;;;;;11.33;49.73;102526.97;5048011;28;20037;-75
2023/01/31 00:33:25;;;;;;;22.33;3.03;;;;;;;11.52;49.02;102520.25;5049219;28;20040;-75
2023/01/31 00:35:50;;;;;;;18.70;2.30;;;;;;;11.20;49.64;102502.38;5048830;28;20056;-76
2023/01/31 00:38:15;;;;;;;18.97;2.93;;;;;;;10.87;50.29;102514.09;5031094;28;20033;-76
2023/01/31 00:40:41;;;;;;;22.97;2.67;;;;;;;10.55;51.42;102511.84;5034552;28;20071;-76
2023/01/31 00:43:06;;;;;;;22.20;3.27;;;;;;;10.17;52.17;102496.31;5048009;28;20126;-75
2023/01/31 00:45:31;;;;;;;11.07;2.77;;;;;;;10.35;51.82;102487.97;5050726;28;20035;-76
2023/01/31 00:47:57;;;;;;;20.57;3.20;;;;;;;9.41;54.96;102488.72;5049749;28;20098;-75
2023/01/31 00:50:22;;;;;;;16.90;3.13;;;;;;;10.15;53.36;102474.50;5046423;28;20491;-75
2023/01/31 00:52:48;;;;;;;24.77;3.03;;;;;;;9.72;53.85;102476.31;5049735;28;20028;-75
2023/01/31 00:55:13;;;;;;;16.17;2.60;;;;;;;9.73;54.66;102476.34;5050077;28;20156;-76
2023/01/31 00:57:39;;;;;;;17.60;2.93;;;;;;;9.42;56.22;102469.63;5048984;28;20021;-76
2023/01/31 01:00:05;;;;;;;26.13;3.77;;;;;;;10.18;54.17;102472.84;5048456;28;20028;-75
2023/01/31 01:02:30;;;;;;;20.67;3.10;;;;;;;9.66;55.14;102474.47;5049546;28;20067;-76
2023/01/31 01:04:55;;;;;;;18.97;3.60;;;;;;;9.73;55.61;102470.25;5048027;28;20021;-75
2023/01/31 01:07:21;;;;;;;20.07;3.30;;;;;;;9.89;55.40;102472.31;5049325;28;20469;-75
2023/01/31 01:09:46;;;;;;;22.07;3.63;;;;;;;9.39;56.44;102465.22;5049689;28;20064;-75
2023/01/31 01:12:11;;;;;;;21.10;2.90;;;;;;;9.42;58.46;102474.84;5048149;28;20029;-75
2023/01/31 01:14:37;;;;;;;15.13;2.50;;;;;;;9.16;59.34;102464.72;5049486;28;20035;-75
2023/01/31 01:17:02;;;;;;;29.43;3.80;;;;;;;9.16;59.22;102462.09;5038382;28;20391;-76
2023/01/31 01:19:28;;;;;;;21.93;3.07;;;;;;;9.43;59.71;102464.41;5033683;28;20029;-75
2023/01/31 01:21:54;;;;;;;16.40;2.97;;;;;;;9.28;60.48;102462.38;5038044;28;20036;-76
2023/01/31 01:24:20;;;;;;;27.93;3.20;;;;;;;8.98;62.32;102453.06;5050515;28;20509;-76
2023/01/31 01:26:46;;;;;;;26.23;3.27;;;;;;;9.45;61.87;102448.78;5048568;28;20100;-75
2023/01/31 01:29:12;;;;;;;27.80;3.43;;;;;;;9.77;61.57;102445.97;5049169;28;20028;-75
2023/01/31 01:31:38;;;;;;;25.83;4.17;;;;;;;10.09;61.52;102440.44;5039244;28;20093;-76
2023/01/31 01:34:12;;;;;;;28.17;4.43;;;;;;;10.40;60.58;102444.50;5029205;28;20048;-76
2023/01/31 01:36:38;;;;;;;41.37;4.47;;;;;;;9.49;63.66;102461.06;5042195;28;20373;-76
2023/01/31 01:39:07;;;;;;;25.20;3.70;;;;;;;10.32;60.96;102459.13;5048656;28;20078;-75
2023/01/31 01:41:33;;;;;;;38.10;4.30;;;;;;;9.95;64.48;102461.97;5047911;28;20480;-76
2023/01/31 01:44:00;;;;;;;24.90;4.63;;;;;;;10.28;61.93;102473.88;5048993;28;20154;-76
2023/01/31 01:46:42;;;;;;;24.53;4.00;;;;;;;10.93;59.88;102469.69;5048436;28;20051;-75
2023/01/31 01:49:23;;;;;;;28.63;5.47;;;;;;;10.61;61.21;102475.31;5043970;28;20048;-76
2023/01/31 01:51:50;;;;;;;28.17;4.37;;;;;;;10.35;61.65;102478.38;5048374;28;20041;-76
2023/01/31 01:54:29;;;;;;;22.10;3.90;;;;;;;11.17;59.37;102468.31;5050581;28;20036;-75
2023/01/31 01:57:00;;;;;;;24.40;4.20;;;;;;;10.95;60.57;102470.63;5052479;28;20502;-76
2023/01/31 01:59:34;;;;;;;35.43;4.47;;;;;;;10.68;62.12;102477.16;5051521;28;20037;-75
2023/01/31 02:02:00;;;;;;;27.57;4.17;;;;;;;10.67;60.93;102472.81;5053439;28;20385;-76
2023/01/31 02:04:32;;;;;;;23.87;4.23;;;;;;;10.96;61.75;102471.47;5035885;28;20060;-75
2023/01/31 02:06:59;;;;;;;24.13;4.63;;;;;;;11.09;59.86;102473.41;5032896;28;20025;-75
2023/01/31 02:09:36;;;;;;;27.80;4.63;;;;;;;11.32;59.56;102476.34;5045625;28;20415;-75
2023/01/31 02:12:02;;;;;;;24.97;4.67;;;;;;;10.69;60.67;102478.94;5050889;28;20072;-77
2023/01/31 02:14:28;;;;;;;34.20;4.93;;;;;;;10.52;64.03;102469.94;5044246;28;20067;-76
2023/01/31 02:16:53;;;;;;;23.43;3.73;;;;;;;11.07;60.29;102459.41;5035141;28;20025;-75
2023/01/31 02:19:40;;;;;;;36.37;4.67;;;;;;;11.35;59.33;102458.06;5050446;28;20492;-76
2023/01/31 02:22:08;;;;;;;35.83;5.50;;;;;;;11.46;59.16;102452.09;5039957;28;20495;-76
2023/01/31 02:25:09;;;;;;;22.33;3.33;;;;;;;11.06;60.34;102469.88;5051184;28;20037;-76
2023/01/31 02:28:10;;;;;;;25.63;4.77;;;;;;;11.38;59.33;102465.06;5065114;28;20040;-75
2023/01/31 02:30:59;;;;;;;24.43;5.20;;;;;;;11.59;57.70;102458.34;5050976;28;20040;-76
2023/01/31 02:33:52;;;;;;;25.63;4.30;;;;;;;11.79;58.50;102461.19;5045939;28;20048;-76
2023/01/31 02:36:54;;;;;;;32.80;5.53;;;;;;;11.16;60.50;102451.69;5049864;28;20086;-76
2023/01/31 02:39:57;;;;;;;26.60;4.07;;;;;;;11.07;60.10;102455.94;5038424;28;20044;-76
2023/01/31 02:42:23;;;;;;;21.55;4.68;;;;;;;11.38;57.70;102452.84;5049916;28;20099;-75
2023/01/31 02:44:58;;;;;;;25.83;4.40;;;;;;;10.85;59.83;102447.78;5046558;28;20121;-76
2023/01/31 02:47:41;;;;;;;31.50;6.07;;;;;;;11.62;58.39;102442.66;5035203;28;20090;-76
2023/01/31 02:50:28;;;;;;;29.95;5.35;;;;;;;11.46;60.39;102444.25;5050008;28;20094;-76
2023/01/31 02:53:11;;;;;;;32.20;5.03;;;;;;;11.10;58.87;102442.88;5051997;28;20160;-76
2023/01/31 02:58:36;;;;;;;28.07;5.30;;;;;;;11.51;59.41;102429.44;5050519;28;20043;-76
2023/01/31 03:01:04;;;;;;;42.83;6.10;;;;;;;11.84;57.85;102433.28;5051039;28;20144;-76
2023/01/31 03:03:33;;;;;;;28.93;5.57;;;;;;;11.71;57.90;102427.91;5083126;28;20033;-75
2023/01/31 03:06:23;;;;;;;24.60;5.73;;;;;;;11.60;59.70;102429.53;5050536;28;20020;-76
2023/01/31 03:09:03;;;;;;;24.60;5.07;;;;;;;11.63;60.27;102434.81;5051028;28;20119;-76
2023/01/31 03:11:44;;;;;;;34.10;6.17;;;;;;;11.61;59.99;102431.31;5050192;28;20052;-75
2023/01/31 03:14:31;;;;;;;37.70;7.40;;;;;;;12.04;60.77;102430.91;5049329;28;20535;-76
2023/01/31 03:17:31;;;;;;;31.40;6.00;;;;;;;11.24;65.33;102425.63;5050347;28;20032;-75
2023/01/31 03:20:13;;;;;;;28.50;6.23;;;;;;;11.82;62.11;102421.94;5050976;28;20485;-76
2023/01/31 03:23:02;;;;;;;37.87;6.07;;;;;;;12.21;59.91;102425.81;5051264;28;20029;-76
2023/01/31 03:25:31;;;;;;;33.00;6.63;;;;;;;11.98;59.83;102426.50;5049717;28;20033;-76
2023/01/31 03:28:02;;;;;;;31.53;7.27;;;;;;;11.92;59.04;102421.13;5032055;28;20036;-76
2023/01/31 03:30:45;;;;;;;25.37;6.10;;;;;;;12.04;59.61;102415.19;5030706;28;20022;-76
2023/01/31 03:33:20;;;;;;;23.87;6.20;;;;;;;12.15;59.56;102412.66;5030800;28;20037;-75
2023/01/31 03:35:55;;;;;;;22.30;6.80;;;;;;;11.55;61.14;102415.50;5032031;28;20481;-76
2023/01/31 03:38:24;;;;;;;30.20;6.10;;;;;;;10.96;65.10;102420.06;5045460;28;20060;-76
2023/01/31 03:41:19;;;;;;;26.30;5.50;;;;;;;12.11;59.51;102416.13;5048570;28;20064;-76
2023/01/31 03:44:02;;;;;;;30.27;5.47;;;;;;;11.44;61.36;102407.53;5051388;28;20049;-75
2023/01/31 03:46:38;;;;;;;26.98;6.57;;;;;;;11.06;62.25;102413.19;5049508;28;20515;-76
2023/01/31 03:49:09;;;;;;;29.87;6.50;;;;;;;11.93;59.24;102412.41;5049551;28;20506;-76
2023/01/31 03:51:40;;;;;;;30.63;6.07;;;;;;;11.60;59.28;102400.75;5035491;28;20033;-75
2023/01/31 03:54:10;;;;;;;32.63;6.33;;;;;;;11.96;58.03;102396.75;5048947;28;20416;-76
2023/01/31 03:56:44;;;;;;;27.20;5.83;;;;;;;12.16;56.21;102388.22;5049874;28;20048;-75
2023/01/31 03:59:19;;;;;;;31.30;5.23;;;;;;;11.91;57.49;102395.81;5050343;28;20035;-76
2023/01/31 04:01:48;;;;;;;26.97;5.50;;;;;;;11.19;59.93;102399.38;5047875;28;20025;-76
2023/01/31 04:04:20;;;;;;;36.97;5.87;;;;;;;11.42;58.98;102403.16;5049039;28;20396;-76
2023/01/31 04:06:46;;;;;;;24.42;5.68;;;;;;;11.25;60.79;102411.69;5049624;28;20027;-75
2023/01/31 04:09:12;;;;;;;31.10;5.57;;;;;;;10.87;63.21;102401.59;5049940;28;20034;-76
2023/01/31 04:11:39;;;;;;;30.63;6.87;;;;;;;10.78;61.42;102404.09;5049802;28;20460;-76
2023/01/31 04:14:05;;;;;;;23.43;6.60;;;;;;;10.43;65.20;102412.28;5048800;28;20512;-75
2023/01/31 04:16:31;;;;;;;40.03;7.50;;;;;;;11.38;62.62;102387.41;5048087;28;20037;-75
2023/01/31 04:18:56;;;;;;;35.37;7.40;;;;;;;11.54;60.55;102387.59;5048319;28;20503;-75
2023/01/31 04:21:22;;;;;;;30.70;6.40;;;;;;;10.72;63.74;102377.84;5032982;28;20036;-76
2023/01/31 04:23:47;;;;;;;31.10;6.37;;;;;;;11.42;63.16;102371.75;5039607;28;20039;-76
2023/01/31 04:26:13;;;;;;;35.27;6.33;;;;;;;11.36;63.09;102368.19;5049210;28;20033;-75
2023/01/31 04:28:38;;;;;;;23.03;6.20;;;;;;;11.43;62.24;102368.25;5048810;28;20029;-75
2023/01/31 04:31:04;;;;;;;35.77;7.60;;;;;;;11.93;60.02;102362.63;5048849;28;20040;-76
2023/01/31 04:33:29;;;;;;;34.87;6.17;;;;;;;11.65;60.65;102364.09;5048633;28;20052;-76
2023/01/31 04:35:55;;;;;;;26.43;6.00;;;;;;;11.51;61.72;102366.59;5049912;28;20028;-76
2023/01/31 04:38:20;;;;;;;23.10;5.67;;;;;;;10.92;63.29;102359.78;5045149;28;20072;-76
2023/01/31 04:40:45;;;;;;;28.17;6.67;;;;;;;11.18;64.20;102361.00;5065152;28;20098;-76
2023/01/31 04:43:14;;;;;;;30.47;5.87;;;;;;;11.03;64.59;102364.31;5045026;28;20025;-75
2023/01/31 04:45:40;;;;;;;30.80;6.23;;;;;;;11.14;63.25;102350.47;5044363;28;20037;-75
2023/01/31 04:48:06;;;;;;;32.03;6.70;;;;;;;11.16;64.35;102354.00;5049024;28;20036;-76
2023/01/31 04:50:31;;;;;;;30.77;6.37;;;;;;;10.85;64.90;102343.13;5045567;28;20751;-75
2023/01/31 04:52:56;;;;;;;39.13;6.70;;;;;;;11.62;62.45;102349.28;5048904;28;20487;-76
2023/01/31 04:55:22;;;;;;;33.50;5.60;;;;;;;11.95;60.19;102350.47;5048533;28;20048;-76
2023/01/31 04:57:47;;;;;;;27.70;5.53;;;;;;;11.33;61.57;102344.59;5038404;28;20116;-75
2023/01/31 05:00:13;;;;;;;29.50;6.10;;;;;;;11.25;62.01;102346.25;5042193;28;20086;-76
2023/01/31 05:02:39;;;;;;;36.37;6.33;;;;;;;11.45;64.32;102346.47;5032334;28;20037;-76
2023/01/31 05:05:05;;;;;;;31.40;6.10;;;;;;;11.35;63.04;102339.38;5050027;28;20032;-76
2023/01/31 05:07:30;;;;;;;32.73;6.10;;;;;;;12.03;60.31;102346.16;5039977;28;20099;-75
2023/01/31 05:09:56;;;;;;;31.03;5.60;;;;;;;11.75;61.27;102337.16;5039542;28;20049;-76
2023/01/31 05:12:21;;;;;;;31.57;5.80;;;;;;;10.64;64.90;102339.38;5046042;28;20025;-76
2023/01/31 05:14:47;;;;;;;33.27;5.63;;;;;;;11.29;64.76;102332.34;5046495;28;20412;-75
2023/01/31 05:17:12;;;;;;;17.93;5.33;;;;;;;10.99;65.24;102328.50;5049603;28;20107;-76
2023/01/31 05:19:37;;;;;;;30.53;5.60;;;;;;;11.76;61.86;102319.69;5047539;28;20036;-76
2023/01/31 05:22:03;;;;;;;27.50;6.27;;;;;;;11.15;65.24;102329.53;5049823;28;20028;-76
2023/01/31 05:24:30;;;;;;;32.03;6.17;;;;;;;11.60;63.49;102321.31;5048894;28;20029;-75
2023/01/31 05:26:57;;;;;;;44.67;5.80;;;;;;;11.57;62.98;102324.78;5048237;28;20029;-76
2023/01/31 05:29:31;;;;;;;34.10;5.43;;;;;;;11.99;61.03;102333.91;5052208;28;20033;-76
2023/01/31 05:31:58;;;;;;;35.83;5.53;;;;;;;11.76;61.56;102340.63;5051588;28;20480;-76
2023/01/31 05:34:25;;;;;;;34.67;6.50;;;;;;;10.77;64.77;102342.16;5052523;28;20100;-76
2023/01/31 05:36:54;;;;;;;27.13;4.87;;;;;;;11.69;63.14;102335.34;5047138;28;20033;-75
2023/01/31 05:39:19;;;;;;;25.67;5.30;;;;;;;11.89;61.45;102326.78;5041388;28;20042;-76
2023/01/31 05:41:45;;;;;;;24.97;4.73;;;;;;;12.36;59.58;102322.78;5083702;28;20028;-76
2023/01/31 05:44:11;;;;;;;18.03;4.70;;;;;;;11.81;60.90;102320.59;5052764;28;20119;-76
2023/01/31 05:46:37;;;;;;;37.87;5.97;;;;;;;11.57;62.14;102323.88;5052209;28;20075;-76
2023/01/31 05:49:03;;;;;;;26.27;4.57;;;;;;;10.95;66.20;102325.81;5051830;28;20485;-76
2023/01/31 05:51:28;;;;;;;32.93;5.23;;;;;;;11.66;62.23;102330.09;5048244;28;20085;-75
2023/01/31 05:53:54;;;;;;;39.07;5.97;;;;;;;12.12;60.45;102315.66;5032908;28;20580;-77
2023/01/31 05:56:20;;;;;;;32.27;4.83;;;;;;;11.99;60.43;102326.03;5052182;28;20544;-75
2023/01/31 05:58:49;;;;;;;26.33;4.93;;;;;;;11.87;60.77;102334.63;5045808;28;20179;-76
2023/01/31 06:01:26;;;;;;;27.03;6.07;;;;;;;11.29;64.62;102334.97;5051871;28;20076;-75
2023/01/31 06:03:52;;;;;;;22.97;5.30;;;;;;;11.75;60.82;102341.53;5052046;28;20555;-76
2023/01/31 06:06:18;;;;;;;25.80;4.77;;;;;;;11.61;63.34;102331.78;5070784;28;20160;-76
2023/01/31 06:08:44;;;;;;;22.50;4.37;;;;;;;11.18;63.69;102320.84;5039180;28;20037;-77
2023/01/31 06:11:11;;;;;;;20.50;4.23;;;;;;;10.93;65.57;102310.09;5032342;28;20046;-76
2023/01/31 06:13:38;;;;;;;27.17;5.17;;;;;;;10.73;66.49;102311.59;5031910;28;20119;-76
2023/01/31 06:16:04;;;;;;;26.57;4.47;;;;;;;11.31;64.14;102309.66;5041463;28;20082;-76
2023/01/31 06:18:29;;;;;;;33.53;4.63;;;;;;;11.33;63.05;102314.91;5051856;28;20459;-76
2023/01/31 06:20:55;;;;;;;24.70;5.03;;;;;;;11.59;63.27;102315.16;5051849;28;20040;-76
2023/01/31 06:23:20;;;;;;;18.63;4.47;;;;;;;11.69;61.41;102314.41;5050866;28;20037;-76
2023/01/31 06:25:50;;;;;;;21.73;3.70;;;;;;;11.34;62.91;102317.53;5052157;28;20021;-75
2023/01/31 06:28:16;;;;;;;29.77;4.67;;;;;;;11.64;63.01;102307.38;5050275;28;20046;-76
2023/01/31 06:30:42;;;;;;;32.47;4.30;;;;;;;11.30;63.53;102310.53;5053272;28;20032;-76
2023/01/31 06:33:08;;;;;;;30.83;5.10;;;;;;;11.41;64.19;102307.16;5085518;28;20032;-76
2023/01/31 06:35:34;;;;;;;31.83;4.57;;;;;;;12.03;61.63;102304.25;5052121;28;20474;-76
2023/01/31 06:38:00;;;;;;;27.27;4.47;;;;;;;12.29;60.96;102311.38;5040655;28;20087;-75
2023/01/31 06:40:25;;;;;;;28.80;5.37;;;;;;;11.72;63.40;102303.06;5045773;28;20040;-75
2023/01/31 06:42:50;;;;;;;27.77;4.30;;;;;;;11.45;62.98;102298.47;5050509;28;20029;-76
2023/01/31 06:45:16;;;;;;;19.03;4.27;;;;;;;11.48;64.09;102288.88;5051660;28;20040;-75
2023/01/31 06:47:44;;;;;;;26.03;4.47;;;;;;;11.04;68.89;102286.69;5050766;28;20460;-76
2023/01/31 06:50:10;;;;;;;31.57;4.90;;;;;;;11.32;67.10;102282.63;5050156;28;20033;-76
2023/01/31 06:52:36;;;;;;;23.27;3.97;;;;;;;11.20;68.45;102272.03;5036668;28;20032;-76
2023/01/31 06:55:02;;;;;;;22.77;5.10;;;;;;;10.86;70.82;102274.28;5051666;28;20035;-76
2023/01/31 06:57:27;;;;;;;28.30;4.57;;;;;;;10.95;68.19;102279.63;5036422;28;20437;-76
2023/01/31 06:59:52;;;;;;;19.73;3.40;;;;;;;11.02;69.80;102268.34;5031577;28;20029;-76
2023/01/31 07:02:18;;;;;;;25.77;4.60;;;;;;;11.35;70.92;102272.19;5032790;28;20037;-76
2023/01/31 07:04:43;;;;;;;25.87;4.10;;;;;;;11.69;67.77;102254.16;5033407;28;20021;-76
2023/01/31 07:07:08;;;;;;;27.47;3.70;;;;;;;11.45;67.42;102248.72;5051937;28;20037;-76
2023/01/31 07:09:34;;;;;;;30.67;4.53;;;;;;;10.94;70.12;102270.00;5050821;28;20041;-75
2023/01/31 07:12:01;;;;;;;20.40;3.50;;;;;;;11.73;65.37;102255.03;5051172;28;20036;-75
2023/01/31 07:14:26;;;;;;;17.10;3.03;;;;;;;11.44;65.97;102246.94;5036451;28;20204;-77
2023/01/31 07:16:51;;;;;;;31.43;3.27;;;;;;;11.33;67.67;102236.38;5030910;28;20120;-76
2023/01/31 07:19:17;;;;;;;27.70;3.73;;;;;;;11.31;66.69;102231.13;5036092;28;20056;-75
2023/01/31 07:21:43;;;;;;;16.80;3.37;;;;;;;11.30;65.83;102241.59;5044874;28;20398;-76
2023/01/31 07:24:08;;;;;;;28.63;3.20;;;;;;;11.31;66.54;102239.00;5049198;28;20039;-76
2023/01/31 07:26:34;;;;;;;17.90;3.20;;;;;;;10.78;69.26;102245.41;5051425;28;20029;-76
2023/01/31 07:28:59;;;;;;;26.10;3.90;;;;;;;11.58;66.59;102237.50;5042105;28;20041;-77
2023/01/31 07:31:25;;;;;;;15.30;2.90;;;;;;;11.62;65.02;102234.03;5045176;28;20127;-76
2023/01/31 07:33:50;;;;;;;18.30;3.13;;;;;;;10.38;69.45;102242.28;5051629;28;20044;-76
2023/01/31 07:36:18;;;;;;;9.87;2.90;;;;;;;11.11;67.77;102241.41;5050731;28;20029;-76
2023/01/31 07:38:44;;;;;;;18.27;3.60;;;;;;;11.11;66.13;102233.53;5051555;28;20032;-77
2023/01/31 07:41:10;;;;;;;29.27;3.80;;;;;;;11.51;65.08;102226.09;5051085;28;20028;-76
2023/01/31 07:43:35;;;;;;;19.97;2.70;;;;;;;11.33;67.17;102239.91;5042096;28;20120;-76
2023/01/31 07:46:04;;;;;;;19.77;5.10;;;;;;;11.29;66.28;102231.97;5037200;28;20477;-76
2023/01/31 07:48:29;;;;;;;11.13;2.40;;;;;;;10.96;67.58;102226.44;5031138;28;20385;-76
2023/01/31 07:51:00;;;;;;;11.47;3.30;;;;;;;11.35;65.37;102222.44;5059830;28;20029;-75
2023/01/31 07:53:30;;;;;;;12.20;2.00;;;;;;;11.83;62.53;102214.09;5043817;28;20795;-76
2023/01/31 07:56:07;;;;;;;14.70;3.30;;;;;;;11.13;64.30;102216.13;5043680;28;20037;-76
2023/01/31 07:58:37;;;;;;;13.67;2.50;;;;;;;11.50;63.14;102205.13;5048749;28;20120;-76
2023/01/31 08:03:47;;;;;;;13.60;1.90;;;;;;;10.71;68.16;102208.72;5050567;28;20455;-76
2023/01/31 08:06:13;;;;;;;17.60;2.60;;;;;;;12.20;60.94;102194.25;5041913;28;20025;-76
2023/01/31 08:08:40;;;;;;;15.10;2.47;;;;;;;11.20;62.93;102193.53;5035046;28;20090;-77
2023/01/31 08:11:06;;;;;;;16.70;2.37;;;;;;;11.44;64.13;102202.44;5049750;28;20045;-76
2023/01/31 08:13:36;;;;;;;11.73;1.77;;;;;;;11.80;63.62;102198.34;5047621;28;20381;-77
2023/01/31 08:16:02;;;;;;;12.90;2.23;;;;;;;11.83;61.43;102198.38;5047653;28;20044;-76
2023/01/31 08:18:28;;;;;;;13.60;2.83;;;;;;;12.28;59.54;102198.66;5049870;28;20048;-77
2023/01/31 08:20:54;;;;;;;20.37;2.53;;;;;;;11.11;64.51;102193.44;5035293;28;20610;-76
2023/01/31 08:23:20;;;;;;;18.03;2.63;;;;;;;11.98;61.67;102192.38;5047227;28;20051;-76
2023/01/31 08:25:45;;;;;;;11.07;2.10;;;;;;;12.33;60.21;102187.31;5046874;28;20660;-76
2023/01/31 08:28:16;;;;;;;15.47;3.17;;;;;;;12.20;60.27;102190.75;5040309;28;20029;-76
2023/01/31 08:30:43;;;;;;;16.03;2.33;;;;;;;12.13;59.42;102188.94;5046014;28;20056;-76
2023/01/31 08:33:10;;;;;;;9.53;2.07;;;;;;;11.25;63.45;102189.22;5046830;28;20045;-77
2023/01/31 08:35:36;;;;;;;13.90;3.20;;;;;;;12.06;60.98;102190.66;5031524;28;20247;-76
2023/01/31 08:38:02;;;;;;;15.87;2.57;;;;;;;11.52;62.04;102182.44;5045111;28;20025;-76
2023/01/31 08:40:28;;;;;;;17.63;2.37;;;;;;;11.29;64.07;102177.91;5045078;28;20033;-76
2023/01/31 08:42:54;;;;;;;17.27;3.10;;;;;;;11.37;64.31;102175.34;5049091;28;20112;-77
2023/01/31 08:45:20;;;;;;;17.97;2.57;;;;;;;11.53;63.20;102181.56;5048883;28;20021;-76
2023/01/31 08:47:45;;;;;;;17.77;3.07;;;;;;;11.97;62.18;102175.78;5050006;28;20102;-76
2023/01/31 08:50:11;;;;;;;17.97;3.57;;;;;;;11.55;63.39;102187.69;5049641;28;20036;-77
2023/01/31 08:52:37;;;;;;;12.33;1.90;;;;;;;11.96;61.78;102181.88;5050941;28;20033;-76
2023/01/31 08:55:05;;;;;;;24.33;3.53;;;;;;;11.59;64.69;102176.38;5048468;28;20061;-77
2023/01/31 08:57:30;;;;;;;19.43;2.37;;;;;;;11.42;65.41;102183.25;5048056;28;20040;-76
2023/01/31 08:59:56;;;;;;;18.53;3.87;;;;;;;12.02;61.68;102184.56;5048415;28;20029;-76
2023/01/31 09:02:21;;;;;;;23.70;3.77;;;;;;;12.29;62.28;102196.03;5047124;28;20036;-76
2023/01/31 09:04:47;;;;;;;17.47;3.00;;;;;;;11.79;64.71;102189.63;5050551;28;20032;-76
2023/01/31 09:07:12;;;;;;;18.47;2.80;;;;;;;12.76;60.73;102183.94;5053597;28;20059;-77
2023/01/31 09:09:37;;;;;;;16.17;3.00;;;;;;;12.84;60.07;102191.84;5052081;28;20066;-76
2023/01/31 09:12:03;;;;;;;22.80;3.13;;;;;;;12.41;60.10;102194.34;5053797;28;20070;-75
2023/01/31 09:14:30;;;;;;;17.83;3.27;;;;;;;12.01;62.61;102184.53;5053538;28;20025;-76
2023/01/31 09:16:56;;;;;;;11.90;2.43;;;;;;;11.81;64.59;102184.38;5053131;28;20036;-76
2023/01/31 09:19:22;;;;;;;20.53;3.37;;;;;;;11.52;67.67;102192.91;5085924;28;20036;-76
2023/01/31 09:21:47;;;;;;;12.90;2.30;;;;;;;12.00;64.30;102175.78;5054030;28;20025;-76
2023/01/31 09:24:13;;;;;;;15.17;2.77;;;;;;;11.69;66.54;102175.59;5052882;28;20029;-76
2023/01/31 09:26:38;;;;;;;16.83;2.70;;;;;;;10.86;70.76;102167.88;5053665;28;20021;-76
2023/01/31 09:29:04;;;;;;;22.33;2.67;;;;;;;12.07;64.13;102152.25;5051877;28;20119;-76
2023/01/31 09:31:30;;;;;;;17.87;2.77;;;;;;;12.11;64.32;102148.78;5052698;28;20511;-77
2023/01/31 09:33:55;;;;;;;20.57;2.60;;;;;;;12.22;64.43;102157.56;5054305;28;20101;-76
2023/01/31 09:36:22;;;;;;;17.57;2.93;;;;;;;11.95;66.21;102159.19;5052075;28;20033;-76
2023/01/31 09:38:52;;;;;;;18.47;2.90;;;;;;;13.10;62.55;102135.91;5052771;28;20048;-77
2023/01/31 09:41:30;;;;;;;19.03;4.83;;;;;;;12.13;64.14;102141.78;5053005;28;20021;-77
2023/01/31 09:44:01;;;;;;;25.07;6.50;;;;;;;12.66;62.96;102148.94;5035397;28;20124;-77
2023/01/31 09:46:35;;;;;;;14.60;2.87;;;;;;;11.76;65.66;102149.41;5033495;28;20369;-76
2023/01/31 09:49:07;;;;;;;14.17;2.70;;;;;;;12.61;61.85;102150.72;5049968;28;20033;-77
2023/01/31 09:51:38;;;;;;;20.50;3.10;;;;;;;12.85;62.36;102138.50;5065775;28;20102;-76
2023/01/31 09:54:13;;;;;;;22.73;2.60;;;;;;;12.54;63.98;102156.78;5050799;28;20551;-76
2023/01/31 09:56:44;;;;;;;19.87;3.33;;;;;;;12.60;61.31;102151.56;5053141;28;20119;-74
2023/01/31 09:59:21;;;;;;;17.47;3.83;;;;;;;12.44;64.09;102157.63;5053349;28;20029;-77
2023/01/31 10:02:05;;;;;;;15.50;2.77;;;;;;;12.61;64.82;102161.19;5054302;28;20025;-76
2023/01/31 10:05:06;;;;;;;22.37;3.53;;;;;;;12.96;61.71;102160.38;5052433;28;20143;-76
2023/01/31 10:07:38;;;;;;;21.43;3.77;;;;;;;12.48;63.75;102165.50;5051626;28;20026;-76
2023/01/31 10:10:31;;;;;;;21.23;3.45;;;;;;;13.34;60.74;102156.91;5051145;28;20045;-76
2023/01/31 10:13:03;;;;;;;17.33;2.97;;;;;;;12.26;66.25;102168.94;5051851;28;20029;-76
2023/01/31 10:15:55;;;;;;;18.25;3.92;;;;;;;12.15;66.21;102167.13;5052264;28;20037;-76
2023/01/31 10:18:31;;;;;;;14.85;2.95;;;;;;;12.81;65.99;102152.50;5051020;28;20061;-76
2023/01/31 10:21:05;;;;;;;14.53;2.90;;;;;;;12.94;62.87;102164.75;5052377;28;20078;-76
2023/01/31 10:23:40;;;;;;;18.33;3.87;;;;;;;13.20;61.73;102158.63;5051895;28;20474;-76
2023/01/31 10:26:13;;;;;;;24.77;3.40;;;;;;;12.80;61.86;102177.81;5052514;28;20024;-77
2023/01/31 10:29:05;;;;;;;17.53;3.33;;;;;;;13.02;60.94;102168.28;5051748;28;20078;-76
2023/01/31 10:31:57;;;;;;;21.43;3.10;;;;;;;13.83;59.74;102155.09;5051276;28;20045;-76
2023/01/31 10:34:31;;;;;;;21.70;3.50;;;;;;;13.47;57.87;102155.16;5052564;28;20028;-76
2023/01/31 10:37:05;;;;;;;17.70;2.93;;;;;;;11.92;66.54;102164.34;5052480;28;20048;-76
2023/01/31 10:40:17;;;;;;;20.23;3.07;;;;;;;12.77;64.92;102150.72;5045197;28;20124;-76
2023/01/31 10:42:54;;;;;;;19.97;3.37;;;;;;;13.36;60.77;102134.16;5031387;28;20029;-77
2023/01/31 10:45:28;;;;;;;16.90;3.23;;;;;;;12.87;62.47;102127.13;5033219;28;20248;-76
2023/01/31 10:48:00;;;;;;;26.60;3.20;;;;;;;13.13;61.51;102128.88;5031303;28;20103;-77
2023/01/31 10:50:41;;;;;;;18.75;2.95;;;;;;;13.30;61.56;102142.00;5064928;28;20033;-76
2023/01/31 10:53:35;;;;;;;19.17;2.80;;;;;;;13.41;60.06;102139.41;5051561;28;20037;-77
2023/01/31 10:56:13;;;;;;;23.67;3.23;;;;;;;13.35;62.12;102129.78;5051488;28;20036;-76
2023/01/31 10:58:39;;;;;;;15.83;2.47;;;;;;;12.57;65.48;102143.69;5051684;28;20036;-77
2023/01/31 11:01:10;;;;;;;26.30;4.07;;;;;;;12.78;66.91;102144.63;5052013;28;20046;-77
2023/01/31 11:03:37;;;;;;;19.80;3.27;;;;;;;12.60;66.42;102141.06;5051924;28;20114;-76
2023/01/31 11:06:05;;;;;;;14.90;3.23;;;;;;;12.88;65.01;102143.75;5051754;28;20472;-76
2023/01/31 11:08:39;;;;;;;16.67;3.07;;;;;;;12.48;65.76;102154.16;5051238;28;20480;-76
2023/01/31 11:11:15;;;;;;;20.77;2.87;;;;;;;12.57;65.92;102154.19;5049903;28;20191;-76
2023/01/31 11:13:55;;;;;;;18.50;2.47;;;;;;;12.83;64.49;102155.97;5085070;28;20392;-76
2023/01/31 11:16:22;;;;;;;17.90;2.30;;;;;;;12.38;66.22;102148.00;5051795;28;20029;-77
2023/01/31 11:18:50;;;;;;;15.50;2.33;;;;;;;12.29;67.13;102156.69;5051192;28;20035;-76
2023/01/31 11:21:22;;;;;;;16.87;2.37;;;;;;;12.59;65.36;102157.69;5049786;28;20040;-76
2023/01/31 11:23:49;;;;;;;18.33;3.53;;;;;;;12.47;66.79;102152.41;5051947;28;20059;-76
2023/01/31 11:26:25;;;;;;;17.47;2.33;;;;;;;11.99;69.80;102155.72;5050379;28;20032;-76
2023/01/31 11:28:52;;;;;;;15.97;1.97;;;;;;;12.39;67.29;102157.59;5051399;28;20029;-76
2023/01/31 11:31:29;;;;;;;20.27;3.00;;;;;;;12.49;67.72;102150.66;5050753;28;20033;-76
2023/01/31 11:33:55;;;;;;;18.47;2.83;;;;;;;13.23;64.48;102135.03;5032251;28;20408;-76
2023/01/31 11:36:22;;;;;;;18.53;3.70;;;;;;;12.23;69.36;102138.34;5031056;28;20155;-76